Friday, January 19, 2018, 7:30 AM GMT
Back to Local

CWIG, Ile Aux Grues, Que.

Location: , , Canada Lat: 47.067
Local Time: 7:30 AM GMT ( 7:30 GMT) Lon: -70.533
Time Zone: GMT Elev: 59 ft

Show me the last for .
Show Coded

Time T Td Feel RH Dir Speed Gust Alt SLP Vis Weather Sky Remarks
2018-01-19 07:00 - - - 0 220° 9 - - - 0 None
2018-01-19 06:00 - - - 0 200° 12 - - - 0 None
2018-01-19 05:00 - - - 0 200° 12 - - - 0 None
2018-01-19 04:00 - - - 0 210° 12 - - - 0 None
2018-01-19 03:00 - - - 0 210° 13 - - - 0 None
2018-01-19 02:00 - - - 0 200° 13 - - - 0 None
2018-01-19 01:00 - - - 0 200° 14 - - - 0 None
2018-01-19 00:00 - - - 0 200° 13 - - - 0 Peak wind: 20 mph (18 kts) from 210° at 13 min
2018-01-18 23:00 - - - 0 200° 14 - - - 0 Peak wind: 21 mph (19 kts) from 230° at 16 min
2018-01-18 22:00 - - - 0 230° 16 - - - 0 Peak wind: 23 mph (20 kts) from 200° at 02 min
2018-01-18 21:00 - - - 0 220° 16 22 - - 0 Peak wind: 27 mph (24 kts) from 240° at 21 min
2018-01-18 20:00 - - - 0 220° 18 26 - - 0 Peak wind: 26 mph (23 kts) from 210° at 09 min
2018-01-18 19:00 - - - 0 220° 20 28 - - 0 Peak wind: 27 mph (24 kts) from 220° at 54 min
2018-01-18 18:00 - - - 0 220° 18 25 - - 0 Peak wind: 29 mph (26 kts) from 230° at 16 min
2018-01-18 17:00 - - - 0 220° 22 - - - 0 Peak wind: 33 mph (29 kts) from 220° at 00 min
2018-01-18 16:00 - - - 0 220° 25 35 - - 0 Peak wind: 34 mph (30 kts) from 210° at 42 min
2018-01-18 15:00 - - - 0 220° 21 26 - - 0 Peak wind: 27 mph (24 kts) from 220° at 31 min
2018-01-18 14:00 - - - 0 210° 18 24 - - 0 Peak wind: 26 mph (23 kts) from 200° at 06 min
2018-01-18 13:00 - - - 0 200° 21 26 - - 0 Peak wind: 27 mph (24 kts) from 190° at 13 min
2018-01-18 12:00 - - - 0 210° 18 25 - - 0 Peak wind: 25 mph (22 kts) from 180° at 52 min
2018-01-18 11:00 - - - 0 210° 17 24 - - 0 Peak wind: 25 mph (22 kts) from 200° at 10 min
2018-01-18 10:00 - - - 0 210° 17 24 - - 0 Peak wind: 26 mph (23 kts) from 230° at 47 min
2018-01-18 09:00 - - - 0 210° 20 25 - - 0 Peak wind: 31 mph (27 kts) from 210° at 02 min
2018-01-18 08:00 - - - 0 210° 22 28 - - 0 Peak wind: 32 mph (28 kts) from 200° at 25 min

Support USWX by starting your Amazon purchase here.